O Brien, Minnesota
Current Conditions -  °F | °C
As of 10:32 AM on Thursday 29 Jan 2015 (Local Time) from KBJI Reporting Station
Light Snow Light Snow  
Wind Chill: -10°   Ceiling: 1700
Heat Index: 10°   Visibility: 5mi
Dew Point:   Wind: 24mph
Humidity: 82%   Direction: 300°WNW
Pressure: 30.32"   Gusts: 30mph
Location:  47.7369°N, 94.9947°W
Report Text: KBJI 291632Z AUTO 30021G26KT 5SM -SN OVC017 M12/M14 A3032 RMK AO2 T11201145
Loading
Personal Weather Stations






























Interactive Weather Map New forecast layout! Learn more

10-Day Weather Forecast

Advertisements
Track Severe Weather on mobile